KBUF

Buffalo Niagara International Airport

Airport
ICAO code
KBUF
IATA Code
BUF
Summary
ICAO Region
NAM
ICAO Territory
Location

Cheektowaga, New York

Serving
Buffalo
Elevation
728 ft
Coordinates
42° 56' 25" N , 78° 43' 49" W
KCC
Airport WX
Lake Effect Snow
Metar
KBUF 230354Z 16007KT 10SM SCT070 SCT085 OVC150 28/19 A2978 RMK AO2 SLP079 T02780189

Description

Airport located in Cheektowaga, New York, USA serving Buffalo, New York as well as Southern Ontario, Canada.

Airport map

Aerial View

SKYbrary Partners:

Safety knowledge contributed by: